Williams, AZ

9:55 AM MST on July 25, 2016 (GMT -0700)
Williams, AZ | | Change Station

Elev 7100 ft 35.23 °N, 112.17 °W | Updated 1 minute ago

Clear
Clear
81.0 °F
Feels Like 80 °F
N
0.0
Wind Variable Wind from WNW
Gusts 3.0 mph

Today
High -- | Low -- °F
--% Chance of Precip.
Yesterday
High -- | Low -- °F
Precip. -- in
Pressure 30.43 in
Visibility 9.0 miles
Clouds Clear
Heat Index 80 °F
Dew Point 52 °F
Humidity 37%
Rainfall 0.00 in
Snow Depth Not available.
5:32 AM 7:37 PM
Waning Gibbous, 64% visible
METAR KCMR 251635Z AUTO VRB06KT 9SM CLR 26/10 A3043 RMK AO2
Pressure 30.43 in
Visibility 9.0 miles
Clouds Clear
Heat Index 80 °F
Dew Point 52 °F
Humidity 37%
Rainfall 0.00 in
Snow Depth Not available.
5:32 AM 7:37 PM
Waning Gibbous, 64% visible
METAR KCMR 251635Z AUTO VRB06KT 9SM CLR 26/10 A3043 RMK AO2

10-Day Weather Forecast

Almanac

Astronomy

Jul. 25, 2016 Rise Set
Actual Time
Civil Twilight
Nautical Twilight
Astronomical Twilight
Moon
Length of Visible Light
Length of Day
Tomorrow will be .
, % of the Moon is Illuminated

Today's Extremes

State Highs State Lows

Community

WunderPhotos

Upload Photos

1,927,349 photos uploaded!

WunderBlog® & News

Nearby

Air Quality

  Air Quality AQ Index Pollutant
Not available.

Snow Depth

Station Depth Elevation

Earthquake Activity

City Distance Mag. Time & Date
Minimum magnitude displayed is 2.5.

Coastal Water Temperatures

Place Temperature

Stations

Nearby Weather Stations

Station Location Temp. Windchill Dew Point Humidity Wind Precip. Elev Updated Type
                   

Watches & Warnings

There are currently no watches in effect.